Time;durP1;ratioP1;P1;durP2;ratioP2;P2;SDS_P1;SDS_P2;PMS_P1;PMS_P2;Temp;Humidity;BMP_temperature;BMP_pressure;BME280_temperature;BME280_humidity;BME280_pressure;Samples;Min_cycle;Max_cycle;Signal;HPM_P1;HPM_P2
2021/09/27 00:01:54;;;;;;;;;;;19.40;98.60;;;;;;5027947;28;20384;-70
2021/09/27 00:04:19;;;;;;;;;;;19.40;98.60;;;;;;5030939;28;20344;-69
2021/09/27 00:06:45;;;;;;;;;;;19.40;98.60;;;;;;5032848;28;20393;-69
2021/09/27 00:09:10;;;;;;;;;;;19.40;98.60;;;;;;5030105;28;19951;-70
2021/09/27 00:11:36;;;;;;;;;;;19.40;98.70;;;;;;5030521;28;19948;-70
2021/09/27 00:14:02;;;;;;;;;;;19.30;98.70;;;;;;5028181;28;19982;-70
2021/09/27 00:16:29;;;;;;;;;;;19.30;98.70;;;;;;5029007;28;19917;-70
2021/09/27 00:18:55;;;;;;;;;;;19.30;98.70;;;;;;5029516;28;19962;-70
2021/09/27 00:21:22;;;;;;;;;;;19.30;98.80;;;;;;5028361;28;20360;-70
2021/09/27 00:23:48;;;;;;;;;;;19.20;98.80;;;;;;5028772;28;19931;-70
2021/09/27 00:26:13;;;;;;;;;;;19.30;98.90;;;;;;5029522;28;20333;-67
2021/09/27 00:28:39;;;;;;;;;;;19.20;98.90;;;;;;5029680;28;19999;-67
2021/09/27 00:31:05;;;;;;;;;;;19.20;98.90;;;;;;5026260;28;19917;-67
2021/09/27 00:33:30;;;;;;;;;;;19.20;98.90;;;;;;5028436;28;19916;-67
2021/09/27 00:35:56;;;;;;;;;;;19.20;99.10;;;;;;5029843;28;20427;-67
2021/09/27 00:38:22;;;;;;;;;;;19.20;99.20;;;;;;5027822;28;20389;-67
2021/09/27 00:40:50;;;;;;;;;;;19.20;99.20;;;;;;5026520;28;19917;-67
2021/09/27 00:43:16;;;;;;;;;;;19.20;99.20;;;;;;5028834;28;19948;-67
2021/09/27 00:45:44;;;;;;;;;;;19.20;99.20;;;;;;5028664;28;20598;-67
2021/09/27 00:48:10;;;;;;;;;;;19.20;99.20;;;;;;5029328;28;19905;-67
2021/09/27 00:50:37;;;;;;;;;;;19.20;99.30;;;;;;5027800;28;20084;-67
2021/09/27 00:53:07;;;;;;;;;;;19.10;99.20;;;;;;5027897;28;19913;-67
2021/09/27 00:55:32;;;;;;;;;;;19.10;99.30;;;;;;5026521;28;19916;-68
2021/09/27 00:57:58;;;;;;;;;;;19.10;99.30;;;;;;5029125;28;19913;-67
2021/09/27 01:00:25;;;;;;;;;;;19.10;99.40;;;;;;5028104;28;19917;-67
2021/09/27 01:02:50;;;;;;;;;;;19.10;99.50;;;;;;5027224;28;19944;-67
2021/09/27 01:05:16;;;;;;;;;;;19.10;99.50;;;;;;5028479;28;19963;-67
2021/09/27 01:07:54;;;;;;;;;;;19.00;99.60;;;;;;5028735;28;19905;-67
2021/09/27 01:10:35;;;;;;;;;;;19.00;99.60;;;;;;5026231;28;19913;-67
2021/09/27 01:13:19;;;;;;;;;;;19.00;99.80;;;;;;5027399;28;19913;-67
2021/09/27 01:16:03;;;;;;;;;;;19.00;99.80;;;;;;5028193;28;19913;-67
2021/09/27 01:18:31;;;;;;;;;;;18.90;99.80;;;;;;5027911;28;19939;-67
2021/09/27 01:21:11;;;;;;;;;;;18.90;99.90;;;;;;5026817;28;19967;-67
2021/09/27 01:23:50;;;;;;;;;;;18.90;99.90;;;;;;5027940;28;19920;-67
2021/09/27 01:26:48;;;;;;;;;;;18.90;99.90;;;;;;5026766;28;19913;-67
2021/09/27 01:29:38;;;;;;;;;;;18.90;99.90;;;;;;5015563;28;19913;-67
2021/09/27 01:32:06;;;;;;;;;;;18.80;99.90;;;;;;5026267;28;19970;-67
2021/09/27 01:34:56;;;;;;;;;;;18.80;99.90;;;;;;5026121;28;19909;-67
2021/09/27 01:37:28;;;;;;;;;;;18.80;99.90;;;;;;5028371;28;19970;-67
2021/09/27 01:40:06;;;;;;;;;;;18.80;99.90;;;;;;5027060;28;19971;-67
2021/09/27 01:42:37;;;;;;;;;;;18.70;99.90;;;;;;5026884;28;19909;-67
2021/09/27 01:45:06;;;;;;;;;;;18.80;99.90;;;;;;5027387;28;19995;-67
2021/09/27 01:47:35;;;;;;;;;;;18.70;99.90;;;;;;5028296;28;19913;-67
2021/09/27 01:50:03;;;;;;;;;;;18.70;99.90;;;;;;5027130;28;20277;-68
2021/09/27 01:52:29;;;;;;;;;;;18.70;99.90;;;;;;5025481;28;20372;-67
2021/09/27 01:54:58;;;;;;;;;;;18.60;99.90;;;;;;5027014;28;19952;-67
2021/09/27 01:57:26;;;;;;;;;;;18.60;99.90;;;;;;5028573;28;19909;-67
2021/09/27 02:00:06;;;;;;;;;;;18.60;99.90;;;;;;5018428;28;19924;-67
2021/09/27 02:02:38;;;;;;;;;;;18.60;99.90;;;;;;5026240;28;19920;-67
2021/09/27 02:05:07;;;;;;;;;;;18.60;99.90;;;;;;5027300;28;19913;-67
2021/09/27 02:07:37;;;;;;;;;;;18.60;99.90;;;;;;5026002;28;20210;-67
2021/09/27 02:10:14;;;;;;;;;;;18.60;99.90;;;;;;5026070;28;19966;-67
2021/09/27 02:12:50;;;;;;;;;;;18.60;99.90;;;;;;5026621;28;19909;-67
2021/09/27 02:15:21;;;;;;;;;;;18.50;99.90;;;;;;5028704;28;19909;-67
2021/09/27 02:17:53;;;;;;;;;;;18.60;99.90;;;;;;5026174;28;19987;-67
2021/09/27 02:20:26;;;;;;;;;;;18.60;99.90;;;;;;5027004;28;20365;-67
2021/09/27 02:22:58;;;;;;;;;;;18.50;99.90;;;;;;5027064;28;19912;-67
2021/09/27 02:25:31;;;;;;;;;;;18.60;99.90;;;;;;5025546;28;19923;-67
2021/09/27 02:27:58;;;;;;;;;;;18.60;99.90;;;;;;5026998;28;19960;-67
2021/09/27 02:30:26;;;;;;;;;;;18.50;99.90;;;;;;5026436;28;19913;-67
2021/09/27 02:33:05;;;;;;;;;;;18.60;99.90;;;;;;5025552;28;20027;-67
2021/09/27 02:35:40;;;;;;;;;;;18.60;99.90;;;;;;5025928;28;19936;-66
2021/09/27 02:38:12;;;;;;;;;;;18.60;99.90;;;;;;5027501;28;19905;-67
2021/09/27 02:41:07;;;;;;;;;;;18.50;99.90;;;;;;5016904;28;20007;-67
2021/09/27 02:43:33;;;;;;;;;;;18.50;99.90;;;;;;5020604;28;19917;-67
2021/09/27 02:45:58;;;;;;;;;;;18.50;99.90;;;;;;5026874;28;19928;-66
2021/09/27 02:48:35;;;;;;;;;;;18.50;99.90;;;;;;5026323;28;19912;-67
2021/09/27 02:51:01;;;;;;;;;;;18.40;99.90;;;;;;5025681;28;19990;-66
2021/09/27 02:53:27;;;;;;;;;;;18.40;99.90;;;;;;5027776;28;20290;-66
2021/09/27 02:56:12;;;;;;;;;;;18.50;99.90;;;;;;5024469;28;19912;-67
2021/09/27 02:58:52;;;;;;;;;;;18.40;99.90;;;;;;5027243;28;19909;-66
2021/09/27 03:01:25;;;;;;;;;;;18.40;99.90;;;;;;5023573;28;19964;-66
2021/09/27 03:04:05;;;;;;;;;;;18.40;99.90;;;;;;5025976;28;19913;-66
2021/09/27 03:06:45;;;;;;;;;;;18.40;99.90;;;;;;5041230;28;19909;-66
2021/09/27 03:09:11;;;;;;;;;;;18.40;99.90;;;;;;5018189;28;19932;-67
2021/09/27 03:11:42;;;;;;;;;;;18.40;99.90;;;;;;5017294;28;20360;-66
2021/09/27 03:14:10;;;;;;;;;;;18.40;99.90;;;;;;5024209;28;19909;-67
2021/09/27 03:16:39;;;;;;;;;;;18.30;99.90;;;;;;5024348;28;20000;-67
2021/09/27 03:19:18;;;;;;;;;;;18.30;99.90;;;;;;5025818;28;19913;-67
2021/09/27 03:21:53;;;;;;;;;;;18.30;99.90;;;;;;5025895;28;19913;-67
2021/09/27 03:24:32;;;;;;;;;;;18.20;99.90;;;;;;5024837;28;19928;-67
2021/09/27 03:27:11;;;;;;;;;;;18.20;99.90;;;;;;5026234;28;19923;-67
2021/09/27 03:29:50;;;;;;;;;;;18.10;99.90;;;;;;5026244;28;19921;-67
2021/09/27 03:32:24;;;;;;;;;;;18.10;99.90;;;;;;5025936;28;19967;-67
2021/09/27 03:34:50;;;;;;;;;;;18.20;99.90;;;;;;5025319;28;20460;-67
2021/09/27 03:37:22;;;;;;;;;;;18.20;99.90;;;;;;5026978;28;19915;-68
2021/09/27 03:39:59;;;;;;;;;;;18.20;99.90;;;;;;5025533;28;20377;-68
2021/09/27 03:42:31;;;;;;;;;;;18.20;99.90;;;;;;5026701;28;20008;-69
2021/09/27 03:45:02;;;;;;;;;;;18.20;99.90;;;;;;5025706;28;20628;-68
2021/09/27 03:47:31;;;;;;;;;;;18.20;99.90;;;;;;5024887;28;19909;-68
2021/09/27 03:50:03;;;;;;;;;;;18.20;99.90;;;;;;5029193;28;19916;-68
2021/09/27 03:52:29;;;;;;;;;;;18.10;99.90;;;;;;5030416;28;19919;-68
2021/09/27 03:54:58;;;;;;;;;;;18.10;99.90;;;;;;5026944;28;20004;-69
2021/09/27 03:57:32;;;;;;;;;;;18.10;99.90;;;;;;5030024;28;20278;-68
2021/09/27 04:00:06;;;;;;;;;;;18.00;99.90;;;;;;5030519;28;19909;-68
2021/09/27 04:02:45;;;;;;;;;;;18.00;99.90;;;;;;5042015;28;20365;-68
2021/09/27 04:05:29;;;;;;;;;;;17.90;99.90;;;;;;5031197;28;19913;-68
2021/09/27 04:07:57;;;;;;;;;;;17.90;99.90;;;;;;5029872;28;19999;-68
2021/09/27 04:10:29;;;;;;;;;;;18.00;99.90;;;;;;5030829;28;19909;-68
2021/09/27 04:13:00;;;;;;;;;;;17.90;99.90;;;;;;5026813;28;19924;-69
2021/09/27 04:15:28;;;;;;;;;;;17.90;99.90;;;;;;5038248;28;20043;-68
2021/09/27 04:18:00;;;;;;;;;;;17.90;99.90;;;;;;5027820;28;19928;-67
2021/09/27 04:20:43;;;;;;;;;;;17.90;99.90;;;;;;5030139;28;19913;-67
2021/09/27 04:23:14;;;;;;;;;;;17.80;99.90;;;;;;5028144;28;19960;-67
2021/09/27 04:25:42;;;;;;;;;;;17.80;99.90;;;;;;5027301;28;19917;-67
2021/09/27 04:28:29;;;;;;;;;;;17.80;99.90;;;;;;5027857;28;20304;-67
2021/09/27 04:30:55;;;;;;;;;;;17.80;99.90;;;;;;5026777;28;20872;-68
2021/09/27 04:33:41;;;;;;;;;;;17.80;99.90;;;;;;5029596;28;19905;-68
2021/09/27 04:36:09;;;;;;;;;;;17.80;99.90;;;;;;5028540;28;19916;-68
2021/09/27 04:38:36;;;;;;;;;;;17.80;99.90;;;;;;5029934;28;19910;-68
2021/09/27 04:41:01;;;;;;;;;;;17.80;99.90;;;;;;5029032;28;19967;-68
2021/09/27 04:43:44;;;;;;;;;;;17.80;99.90;;;;;;5027861;28;19914;-72
2021/09/27 04:46:10;;;;;;;;;;;17.90;99.90;;;;;;5059846;28;19959;-69
2021/09/27 04:48:38;;;;;;;;;;;18.00;99.90;;;;;;5029825;28;19913;-67
2021/09/27 04:51:15;;;;;;;;;;;18.20;99.90;;;;;;5028645;28;20259;-66
2021/09/27 04:53:41;;;;;;;;;;;18.20;99.90;;;;;;5028862;28;19995;-66
2021/09/27 04:56:20;;;;;;;;;;;18.10;99.90;;;;;;5029203;28;20008;-66
2021/09/27 04:59:03;;;;;;;;;;;18.00;99.90;;;;;;5026648;28;19984;-66
2021/09/27 05:01:32;;;;;;;;;;;17.90;99.90;;;;;;5027082;28;20290;-66
2021/09/27 05:04:09;;;;;;;;;;;17.90;99.90;;;;;;5029320;28;19948;-65
2021/09/27 05:06:43;;;;;;;;;;;17.80;99.90;;;;;;5029245;28;20370;-66
2021/09/27 05:09:24;;;;;;;;;;;17.70;99.90;;;;;;5029079;28;19913;-66
2021/09/27 05:12:09;;;;;;;;;;;17.70;99.90;;;;;;5029281;28;20406;-66
2021/09/27 05:14:54;;;;;;;;;;;17.70;99.90;;;;;;5028980;28;20000;-66
2021/09/27 05:17:27;;;;;;;;;;;17.70;99.90;;;;;;5024263;28;19920;-67
2021/09/27 05:19:59;;;;;;;;;;;17.70;99.90;;;;;;5027673;28;19905;-66
2021/09/27 05:22:33;;;;;;;;;;;17.60;99.90;;;;;;5029100;28;19909;-66
2021/09/27 05:25:05;;;;;;;;;;;17.60;99.90;;;;;;5028661;28;19924;-66
2021/09/27 05:27:50;;;;;;;;;;;17.60;99.90;;;;;;5028719;28;20448;-66
2021/09/27 05:30:15;;;;;;;;;;;17.50;99.90;;;;;;5029059;28;20471;-66
2021/09/27 05:32:46;;;;;;;;;;;17.50;99.90;;;;;;5027406;28;19999;-66
2021/09/27 05:35:30;;;;;;;;;;;17.60;99.90;;;;;;5029274;28;19916;-66
2021/09/27 05:38:01;;;;;;;;;;;17.60;99.90;;;;;;5029345;28;19984;-66
2021/09/27 05:40:29;;;;;;;;;;;17.60;99.90;;;;;;5028774;28;19952;-66
2021/09/27 05:43:09;;;;;;;;;;;17.70;99.90;;;;;;5028535;28;19909;-66
2021/09/27 05:45:50;;;;;;;;;;;17.70;99.90;;;;;;5028805;28;19909;-66
2021/09/27 05:48:25;;;;;;;;;;;17.70;99.90;;;;;;5019382;28;20276;-66
2021/09/27 05:51:02;;;;;;;;;;;17.70;99.90;;;;;;5028085;28;19931;-66
2021/09/27 05:53:31;;;;;;;;;;;17.70;99.90;;;;;;5029121;28;19913;-66
2021/09/27 05:56:19;;;;;;;;;;;17.70;99.90;;;;;;5028677;28;19909;-66
2021/09/27 05:59:03;;;;;;;;;;;17.70;99.90;;;;;;5028422;28;20354;-66
2021/09/27 06:01:43;;;;;;;;;;;17.70;99.90;;;;;;5028565;28;19913;-66
2021/09/27 06:04:09;;;;;;;;;;;17.70;99.90;;;;;;5027431;28;19917;-66
2021/09/27 06:06:39;;;;;;;;;;;17.70;99.90;;;;;;5029184;28;20339;-66
2021/09/27 06:09:24;;;;;;;;;;;17.80;99.90;;;;;;5028327;28;20444;-66
2021/09/27 06:11:57;;;;;;;;;;;17.80;99.90;;;;;;5027556;28;19955;-65
2021/09/27 06:14:24;;;;;;;;;;;17.80;99.90;;;;;;5028738;28;20358;-66
2021/09/27 06:17:08;;;;;;;;;;;17.80;99.90;;;;;;5027500;28;19913;-66
2021/09/27 06:19:49;;;;;;;;;;;17.80;99.90;;;;;;5042212;28;19913;-66
2021/09/27 06:22:33;;;;;;;;;;;17.80;99.90;;;;;;5028158;28;19912;-66
2021/09/27 06:25:18;;;;;;;;;;;17.80;99.90;;;;;;5044741;22;19919;-61
2021/09/27 06:28:03;;;;;;;;;;;17.80;99.90;;;;;;5026227;28;20046;-61
2021/09/27 06:30:28;;;;;;;;;;;17.80;99.90;;;;;;5025997;28;19928;-61
2021/09/27 06:32:56;;;;;;;;;;;17.90;99.90;;;;;;5020421;28;19917;-61
2021/09/27 06:35:24;;;;;;;;;;;17.90;99.90;;;;;;5006668;28;20290;-61
2021/09/27 06:37:49;;;;;;;;;;;17.80;99.90;;;;;;5006697;28;20201;-61
2021/09/27 06:40:15;;;;;;;;;;;17.80;99.90;;;;;;5006481;28;19932;-61
2021/09/27 06:42:41;;;;;;;;;;;17.90;99.90;;;;;;5010408;28;19906;-61
2021/09/27 06:45:07;;;;;;;;;;;17.90;99.90;;;;;;5006519;28;19909;-61
2021/09/27 06:47:33;;;;;;;;;;;17.90;99.90;;;;;;5021294;28;20454;-61
2021/09/27 06:50:00;;;;;;;;;;;18.00;99.90;;;;;;5018500;28;19913;-61
2021/09/27 06:52:26;;;;;;;;;;;18.00;99.90;;;;;;5008430;28;20203;-61
2021/09/27 06:54:51;;;;;;;;;;;18.00;99.90;;;;;;5014151;28;19913;-60
2021/09/27 06:57:17;;;;;;;;;;;18.00;99.90;;;;;;5035125;28;19909;-61
2021/09/27 06:59:43;;;;;;;;;;;18.10;99.90;;;;;;5022889;28;19909;-61
2021/09/27 07:02:08;;;;;;;;;;;18.10;99.90;;;;;;5011495;28;19967;-62
2021/09/27 07:04:34;;;;;;;;;;;18.10;99.90;;;;;;5010059;28;19963;-62
2021/09/27 07:06:59;;;;;;;;;;;18.10;99.90;;;;;;5005279;28;19913;-61
2021/09/27 07:09:25;;;;;;;;;;;18.10;99.90;;;;;;5006481;28;19921;-60
2021/09/27 07:11:50;;;;;;;;;;;18.10;99.90;;;;;;5014020;28;19909;-61
2021/09/27 07:14:15;;;;;;;;;;;18.10;99.90;;;;;;5025640;28;19963;-60
2021/09/27 07:16:41;;;;;;;;;;;18.20;99.90;;;;;;5006387;28;19905;-61
2021/09/27 07:19:08;;;;;;;;;;;18.20;99.90;;;;;;5020986;28;20119;-61
2021/09/27 07:21:34;;;;;;;;;;;18.30;99.90;;;;;;5017412;28;19920;-60
2021/09/27 07:24:00;;;;;;;;;;;18.30;99.90;;;;;;5020354;28;19920;-62
2021/09/27 07:26:27;;;;;;;;;;;18.30;99.90;;;;;;5015085;28;19917;-61
2021/09/27 07:28:53;;;;;;;;;;;18.40;99.90;;;;;;5020077;28;19932;-61
2021/09/27 07:31:20;;;;;;;;;;;18.40;99.90;;;;;;5014102;28;19952;-60
2021/09/27 07:33:46;;;;;;;;;;;18.40;99.90;;;;;;5009702;28;19905;-61
2021/09/27 07:36:11;;;;;;;;;;;18.40;99.90;;;;;;5010454;28;19916;-61
2021/09/27 07:38:37;;;;;;;;;;;18.30;99.90;;;;;;5029642;28;20004;-61
2021/09/27 07:41:02;;;;;;;;;;;18.30;99.90;;;;;;5007536;28;20030;-59
2021/09/27 07:43:28;;;;;;;;;;;18.30;99.90;;;;;;5010121;28;19945;-61
2021/09/27 07:45:53;;;;;;;;;;;18.40;99.90;;;;;;5025067;28;20462;-61
2021/09/27 07:48:19;;;;;;;;;;;18.40;99.90;;;;;;5010968;28;20319;-61
2021/09/27 07:50:46;;;;;;;;;;;18.40;99.90;;;;;;5009510;28;20447;-61
2021/09/27 07:53:12;;;;;;;;;;;18.50;99.90;;;;;;5010117;28;20012;-61
2021/09/27 07:55:38;;;;;;;;;;;18.50;99.90;;;;;;5012023;28;20012;-61
2021/09/27 07:58:03;;;;;;;;;;;18.60;99.90;;;;;;5013369;28;19913;-60
2021/09/27 08:00:29;;;;;;;;;;;18.60;99.90;;;;;;5026768;28;19919;-61
2021/09/27 08:02:55;;;;;;;;;;;18.60;99.90;;;;;;5010716;28;19920;-61
2021/09/27 08:05:22;;;;;;;;;;;18.60;99.90;;;;;;5017041;28;19924;-61
2021/09/27 08:07:47;;;;;;;;;;;18.70;99.90;;;;;;5009576;28;20561;-59
2021/09/27 08:10:13;;;;;;;;;;;18.70;99.90;;;;;;5036541;28;19916;-61
2021/09/27 08:12:39;;;;;;;;;;;18.80;99.90;;;;;;5013135;28;19928;-60
2021/09/27 08:15:06;;;;;;;;;;;18.90;99.90;;;;;;5009832;28;20323;-61
2021/09/27 08:17:32;;;;;;;;;;;19.00;99.90;;;;;;5007727;28;19912;-61
2021/09/27 08:20:00;;;;;;;;;;;19.00;99.90;;;;;;5012130;28;19912;-61
2021/09/27 08:22:25;;;;;;;;;;;19.10;99.90;;;;;;5008772;28;19951;-60
2021/09/27 08:24:51;;;;;;;;;;;19.10;99.90;;;;;;5027286;28;20358;-61
2021/09/27 08:27:16;;;;;;;;;;;19.20;99.90;;;;;;5016506;28;19909;-61
2021/09/27 08:29:42;;;;;;;;;;;19.30;99.90;;;;;;5009171;28;19906;-61
2021/09/27 08:32:07;;;;;;;;;;;19.30;99.90;;;;;;5016565;28;20004;-61
2021/09/27 08:34:33;;;;;;;;;;;19.40;99.90;;;;;;5008739;28;20309;-61
2021/09/27 08:36:58;;;;;;;;;;;19.50;99.90;;;;;;5010808;28;19939;-59
2021/09/27 08:39:24;;;;;;;;;;;19.50;99.90;;;;;;5013088;28;19944;-60
2021/09/27 08:41:52;;;;;;;;;;;19.70;99.90;;;;;;5015580;28;19917;-61
2021/09/27 08:44:36;;;;;;;;;;;19.70;99.90;;;;;;5025356;28;19939;-61
2021/09/27 08:47:08;;;;;;;;;;;19.70;99.90;;;;;;5008876;28;19905;-60
2021/09/27 08:49:38;;;;;;;;;;;19.80;99.90;;;;;;5008954;28;19913;-61
2021/09/27 08:52:04;;;;;;;;;;;19.90;99.90;;;;;;5011057;28;19910;-60
2021/09/27 08:54:30;;;;;;;;;;;19.90;99.90;;;;;;5018893;28;19905;-61
2021/09/27 08:56:56;;;;;;;;;;;20.00;99.90;;;;;;5008495;28;19960;-61
2021/09/27 08:59:40;;;;;;;;;;;20.10;99.90;;;;;;5008645;28;19909;-60
2021/09/27 09:02:10;;;;;;;;;;;20.10;99.90;;;;;;5008754;28;19914;-62
2021/09/27 09:04:41;;;;;;;;;;;20.20;99.90;;;;;;5008737;28;20007;-62
2021/09/27 09:07:08;;;;;;;;;;;20.30;99.60;;;;;;5008762;28;20193;-59
2021/09/27 09:09:43;;;;;;;;;;;20.40;99.30;;;;;;5010505;28;19913;-62
2021/09/27 09:12:30;;;;;;;;;;;20.40;99.30;;;;;;5007734;28;19913;-61
2021/09/27 09:15:16;;;;;;;;;;;20.50;99.40;;;;;;5008464;28;19957;-61
2021/09/27 09:17:52;;;;;;;;;;;20.70;99.50;;;;;;5014711;28;19915;-61
2021/09/27 09:20:24;;;;;;;;;;;20.70;99.40;;;;;;5028269;28;19913;-62
2021/09/27 09:22:50;;;;;;;;;;;20.80;98.90;;;;;;5022448;28;20334;-61
2021/09/27 09:25:25;;;;;;;;;;;21.00;98.30;;;;;;5008760;28;19916;-61
2021/09/27 09:27:51;;;;;;;;;;;21.10;98.20;;;;;;5007647;28;19909;-61
2021/09/27 09:30:17;;;;;;;;;;;21.10;97.50;;;;;;5008143;28;20264;-63
2021/09/27 09:32:43;;;;;;;;;;;21.20;97.60;;;;;;5007255;28;19920;-62
2021/09/27 09:35:13;;;;;;;;;;;21.30;97.50;;;;;;5008261;28;19909;-60
2021/09/27 09:37:41;;;;;;;;;;;21.30;97.30;;;;;;5023383;28;19905;-61
2021/09/27 09:40:18;;;;;;;;;;;21.40;97.60;;;;;;5007407;28;19917;-62
2021/09/27 09:42:54;;;;;;;;;;;21.40;96.80;;;;;;5026832;28;20049;-62
2021/09/27 09:45:22;;;;;;;;;;;21.40;96.70;;;;;;5008225;28;19913;-61
2021/09/27 09:47:47;;;;;;;;;;;21.50;96.60;;;;;;5005648;28;19916;-61
2021/09/27 09:50:22;;;;;;;;;;;21.50;96.10;;;;;;5008324;28;19909;-62
2021/09/27 09:52:48;;;;;;;;;;;21.60;95.60;;;;;;5012680;28;20604;-62
2021/09/27 09:55:33;;;;;;;;;;;21.60;95.00;;;;;;5020988;28;19913;-61
2021/09/27 09:58:00;;;;;;;;;;;21.70;95.40;;;;;;5022186;28;19909;-62
2021/09/27 10:00:38;;;;;;;;;;;21.80;95.10;;;;;;5007715;28;20386;-62
2021/09/27 10:03:03;;;;;;;;;;;21.70;94.80;;;;;;5009370;28;20360;-62
2021/09/27 10:05:35;;;;;;;;;;;21.90;95.10;;;;;;5008020;28;19967;-61
2021/09/27 10:08:03;;;;;;;;;;;21.90;94.60;;;;;;5007400;28;19905;-63
2021/09/27 10:10:40;;;;;;;;;;;21.90;94.90;;;;;;5006341;28;19931;-62
2021/09/27 10:13:23;;;;;;;;;;;22.00;94.40;;;;;;5005648;28;20339;-61
2021/09/27 10:15:49;;;;;;;;;;;22.10;94.40;;;;;;5007840;28;19924;-61
2021/09/27 10:18:23;;;;;;;;;;;22.00;94.40;;;;;;5011945;28;19913;-62
2021/09/27 10:21:04;;;;;;;;;;;22.10;94.30;;;;;;5012797;28;19909;-61
2021/09/27 10:23:35;;;;;;;;;;;22.10;94.40;;;;;;5006548;28;20843;-61
2021/09/27 10:26:17;;;;;;;;;;;22.10;94.50;;;;;;5008790;28;19957;-62
2021/09/27 10:28:43;;;;;;;;;;;22.20;94.20;;;;;;5010000;28;20411;-62
2021/09/27 10:31:09;;;;;;;;;;;22.30;93.90;;;;;;5006841;28;19917;-61
2021/09/27 10:33:40;;;;;;;;;;;22.30;94.10;;;;;;5018522;28;19909;-61
2021/09/27 10:36:07;;;;;;;;;;;22.40;93.90;;;;;;5006338;28;20497;-61
2021/09/27 10:38:40;;;;;;;;;;;22.30;93.80;;;;;;5006838;28;19913;-62
2021/09/27 10:41:24;;;;;;;;;;;22.30;94.00;;;;;;5005088;28;20015;-61
2021/09/27 10:43:52;;;;;;;;;;;22.30;93.70;;;;;;5005561;28;19935;-62
2021/09/27 10:46:18;;;;;;;;;;;22.30;93.80;;;;;;5019175;28;19912;-61
2021/09/27 10:48:46;;;;;;;;;;;22.30;93.70;;;;;;5022432;28;20259;-61
2021/09/27 10:51:12;;;;;;;;;;;22.30;93.80;;;;;;5007907;28;20308;-61
2021/09/27 10:53:44;;;;;;;;;;;22.40;93.80;;;;;;5006193;28;19979;-62
2021/09/27 10:56:15;;;;;;;;;;;22.50;93.80;;;;;;5007314;28;19909;-62
2021/09/27 10:58:47;;;;;;;;;;;22.50;93.50;;;;;;5007252;28;20351;-62
2021/09/27 11:01:32;;;;;;;;;;;22.60;92.90;;;;;;5012184;28;19913;-61
2021/09/27 11:03:58;;;;;;;;;;;22.70;93.20;;;;;;5007025;28;20051;-62
2021/09/27 11:06:36;;;;;;;;;;;22.70;93.40;;;;;;5006594;28;19914;-62
2021/09/27 11:09:04;;;;;;;;;;;22.60;92.60;;;;;;5004367;28;19917;-62
2021/09/27 11:11:30;;;;;;;;;;;22.70;92.40;;;;;;5006287;28;19917;-62
2021/09/27 11:14:00;;;;;;;;;;;22.70;92.40;;;;;;5006302;28;19905;-62
2021/09/27 11:16:28;;;;;;;;;;;22.70;92.40;;;;;;5021266;28;19916;-61
2021/09/27 11:18:54;;;;;;;;;;;22.60;92.40;;;;;;5022728;28;19916;-62
2021/09/27 11:21:19;;;;;;;;;;;22.70;92.00;;;;;;5005625;28;19921;-61
2021/09/27 11:23:45;;;;;;;;;;;22.70;92.10;;;;;;5010452;28;19914;-61
2021/09/27 11:26:14;;;;;;;;;;;22.80;92.10;;;;;;5005817;28;20360;-62
2021/09/27 11:28:43;;;;;;;;;;;22.90;91.70;;;;;;5006674;28;20774;-62
2021/09/27 11:31:27;;;;;;;;;;;22.90;91.50;;;;;;5023241;28;20340;-62
2021/09/27 11:33:54;;;;;;;;;;;22.90;91.30;;;;;;5009047;28;20384;-62
2021/09/27 11:36:19;;;;;;;;;;;23.00;91.40;;;;;;5006103;28;20311;-62
2021/09/27 11:38:46;;;;;;;;;;;23.00;91.10;;;;;;5006612;28;19916;-62
2021/09/27 11:41:11;;;;;;;;;;;23.00;91.40;;;;;;5005103;28;20371;-62
2021/09/27 11:43:49;;;;;;;;;;;22.90;91.00;;;;;;5006266;28;19943;-62
2021/09/27 11:46:17;;;;;;;;;;;22.90;91.20;;;;;;5004833;28;19910;-62
2021/09/27 11:48:48;;;;;;;;;;;22.90;90.80;;;;;;5015610;28;19992;-61
2021/09/27 11:51:19;;;;;;;;;;;22.90;90.90;;;;;;5012155;28;19916;-61
2021/09/27 11:53:53;;;;;;;;;;;22.90;90.90;;;;;;5019545;28;19905;-61
2021/09/27 11:56:34;;;;;;;;;;;22.90;91.00;;;;;;5008072;28;20368;-62
2021/09/27 11:59:06;;;;;;;;;;;22.90;90.70;;;;;;5006421;28;19940;-62
2021/09/27 12:01:37;;;;;;;;;;;23.00;90.50;;;;;;5005380;28;19913;-62
2021/09/27 12:04:16;;;;;;;;;;;23.00;90.30;;;;;;5010543;28;20395;-62
2021/09/27 12:06:43;;;;;;;;;;;23.00;90.20;;;;;;5021750;28;20307;-61
2021/09/27 12:09:27;;;;;;;;;;;23.00;90.30;;;;;;5014664;28;19916;-61
2021/09/27 12:11:54;;;;;;;;;;;23.00;90.20;;;;;;5011141;28;19913;-62
2021/09/27 12:14:22;;;;;;;;;;;23.00;90.20;;;;;;5009632;28;19945;-62
2021/09/27 12:16:49;;;;;;;;;;;23.00;90.30;;;;;;5024422;28;20342;-61
2021/09/27 12:19:22;;;;;;;;;;;23.00;90.40;;;;;;5024816;28;19912;-61
2021/09/27 12:21:50;;;;;;;;;;;23.00;90.50;;;;;;5006596;28;19967;-62
2021/09/27 12:24:19;;;;;;;;;;;23.00;90.30;;;;;;5022291;28;19909;-62
2021/09/27 12:26:50;;;;;;;;;;;22.90;90.10;;;;;;5059235;22;19963;-65
2021/09/27 12:29:21;;;;;;;;;;;22.80;89.90;;;;;;5049274;28;19908;-65
2021/09/27 12:31:53;;;;;;;;;;;22.80;89.80;;;;;;5048870;28;20308;-64
2021/09/27 12:34:24;;;;;;;;;;;22.80;89.40;;;;;;5048666;28;19913;-64
2021/09/27 12:36:50;;;;;;;;;;;22.80;89.40;;;;;;5046555;28;19913;-65
2021/09/27 12:39:18;;;;;;;;;;;22.80;89.60;;;;;;5049762;28;19991;-65
2021/09/27 12:41:44;;;;;;;;;;;22.80;89.80;;;;;;5048084;28;20230;-65
2021/09/27 12:44:14;;;;;;;;;;;22.90;89.50;;;;;;5049735;28;19905;-65
2021/09/27 12:46:40;;;;;;;;;;;22.90;89.50;;;;;;5048481;28;19912;-65
2021/09/27 12:49:09;;;;;;;;;;;22.90;89.70;;;;;;5046508;28;19913;-65
2021/09/27 12:51:40;;;;;;;;;;;23.00;89.80;;;;;;5047513;28;20358;-65
2021/09/27 12:54:16;;;;;;;;;;;23.00;89.30;;;;;;5048137;28;19948;-65
2021/09/27 12:56:42;;;;;;;;;;;23.00;88.60;;;;;;5048485;28;19908;-64
2021/09/27 12:59:12;;;;;;;;;;;23.10;88.00;;;;;;5048132;28;19964;-65
2021/09/27 13:01:41;;;;;;;;;;;23.10;88.40;;;;;;5046352;28;19912;-65
2021/09/27 13:04:09;;;;;;;;;;;23.20;87.70;;;;;;5045999;28;19920;-65
2021/09/27 13:06:50;;;;;;;;;;;23.30;87.80;;;;;;5045977;28;20001;-65
2021/09/27 13:09:42;;;;;;;;;;;23.30;87.50;;;;;;5035503;28;19970;-65
2021/09/27 13:12:09;;;;;;;;;;;23.30;87.70;;;;;;5045834;28;19909;-64
2021/09/27 13:14:36;;;;;;;;;;;23.40;87.80;;;;;;5046402;28;19908;-65
2021/09/27 13:17:10;;;;;;;;;;;23.40;87.20;;;;;;5047987;28;19996;-65
2021/09/27 13:19:43;;;;;;;;;;;23.40;86.60;;;;;;5046341;28;20371;-64
2021/09/27 13:22:22;;;;;;;;;;;23.40;87.50;;;;;;5044008;28;19913;-65
2021/09/27 13:24:50;;;;;;;;;;;23.40;87.60;;;;;;5046308;28;20275;-65
2021/09/27 13:27:22;;;;;;;;;;;23.50;87.50;;;;;;5047448;28;19962;-65
2021/09/27 13:29:50;;;;;;;;;;;23.60;86.20;;;;;;5046091;28;19959;-65
2021/09/27 13:32:18;;;;;;;;;;;23.60;85.20;;;;;;5046666;28;19915;-65
2021/09/27 13:35:03;;;;;;;;;;;23.60;84.80;;;;;;5046392;28;19923;-65
2021/09/27 13:37:40;;;;;;;;;;;23.70;83.40;;;;;;5047580;28;19904;-65
2021/09/27 13:40:23;;;;;;;;;;;23.70;84.80;;;;;;5041285;28;20118;-65
2021/09/27 13:42:51;;;;;;;;;;;23.70;83.80;;;;;;5046488;28;20339;-66
2021/09/27 13:45:43;;;;;;;;;;;23.70;83.60;;;;;;5048067;28;19992;-65
2021/09/27 13:48:09;;;;;;;;;;;23.60;83.10;;;;;;5049847;28;19909;-65
2021/09/27 13:50:35;;;;;;;;;;;23.60;83.60;;;;;;5048155;28;19931;-66
2021/09/27 13:53:05;;;;;;;;;;;23.60;83.50;;;;;;5049086;28;19912;-66
2021/09/27 13:55:31;;;;;;;;;;;23.60;82.60;;;;;;5049794;28;19916;-66
2021/09/27 13:57:57;;;;;;;;;;;23.60;83.10;;;;;;5048064;28;20510;-66
2021/09/27 14:00:22;;;;;;;;;;;23.60;82.40;;;;;;5044354;28;20262;-67
2021/09/27 14:02:48;;;;;;;;;;;23.60;83.10;;;;;;5046046;28;19912;-66
2021/09/27 14:05:15;;;;;;;;;;;23.60;82.70;;;;;;5046959;28;19909;-66
2021/09/27 14:07:41;;;;;;;;;;;23.60;83.10;;;;;;5046863;28;19931;-67
2021/09/27 14:10:07;;;;;;;;;;;23.60;83.30;;;;;;5046839;28;19909;-66
2021/09/27 14:12:33;;;;;;;;;;;23.60;82.30;;;;;;5046541;28;19944;-66
2021/09/27 14:14:58;;;;;;;;;;;23.50;82.70;;;;;;5047160;28;19905;-66
2021/09/27 14:17:24;;;;;;;;;;;23.50;82.80;;;;;;5046068;28;19915;-67
2021/09/27 14:19:51;;;;;;;;;;;23.50;83.10;;;;;;5045599;28;19919;-66
2021/09/27 14:22:17;;;;;;;;;;;23.40;83.10;;;;;;5047032;28;19938;-66
2021/09/27 14:24:42;;;;;;;;;;;23.40;83.40;;;;;;5047101;28;19909;-66
2021/09/27 14:27:08;;;;;;;;;;;23.40;83.50;;;;;;5047489;28;19982;-66
2021/09/27 14:29:34;;;;;;;;;;;23.40;83.40;;;;;;5047940;28;20325;-66
2021/09/27 14:31:59;;;;;;;;;;;23.40;83.70;;;;;;5046130;28;20288;-66
2021/09/27 14:34:25;;;;;;;;;;;23.30;83.60;;;;;;5046599;28;19909;-66
2021/09/27 14:36:51;;;;;;;;;;;23.30;83.60;;;;;;5046154;28;20362;-66
2021/09/27 14:39:16;;;;;;;;;;;23.20;84.00;;;;;;5046476;28;20338;-66